sensor_id;sensor_type;location;lat;lon;timestamp;P1;durP1;ratioP1;P2;durP2;ratioP2
41719;SDS011;27405;53.316;-6.294;2022-12-29T00:01:54;12.95;;;3.45;;
41719;SDS011;27405;53.316;-6.294;2022-12-29T00:04:20;9.38;;;3.25;;
41719;SDS011;27405;53.316;-6.294;2022-12-29T00:06:46;8.07;;;3.05;;
41719;SDS011;27405;53.316;-6.294;2022-12-29T00:09:12;11.13;;;3.30;;
41719;SDS011;27405;53.316;-6.294;2022-12-29T00:11:39;7.35;;;2.88;;
41719;SDS011;27405;53.316;-6.294;2022-12-29T00:14:05;10.63;;;2.95;;
41719;SDS011;27405;53.316;-6.294;2022-12-29T00:16:51;8.07;;;3.50;;
41719;SDS011;27405;53.316;-6.294;2022-12-29T00:19:17;5.53;;;3.35;;
41719;SDS011;27405;53.316;-6.294;2022-12-29T00:22:01;10.40;;;2.90;;
41719;SDS011;27405;53.316;-6.294;2022-12-29T00:24:45;8.65;;;3.17;;
41719;SDS011;27405;53.316;-6.294;2022-12-29T00:27:19;11.32;;;3.00;;
41719;SDS011;27405;53.316;-6.294;2022-12-29T00:30:14;8.98;;;2.88;;
41719;SDS011;27405;53.316;-6.294;2022-12-29T00:35:58;7.90;;;2.50;;
41719;SDS011;27405;53.316;-6.294;2022-12-29T00:38:29;10.07;;;2.65;;
41719;SDS011;27405;53.316;-6.294;2022-12-29T00:41:16;7.22;;;2.45;;
41719;SDS011;27405;53.316;-6.294;2022-12-29T00:44:00;8.70;;;2.95;;
41719;SDS011;27405;53.316;-6.294;2022-12-29T00:46:35;13.48;;;3.33;;
41719;SDS011;27405;53.316;-6.294;2022-12-29T00:49:02;8.80;;;2.67;;
41719;SDS011;27405;53.316;-6.294;2022-12-29T00:51:47;12.35;;;2.83;;
41719;SDS011;27405;53.316;-6.294;2022-12-29T00:54:14;11.70;;;2.78;;
41719;SDS011;27405;53.316;-6.294;2022-12-29T00:56:40;6.68;;;2.38;;
41719;SDS011;27405;53.316;-6.294;2022-12-29T00:59:08;10.35;;;2.67;;
41719;SDS011;27405;53.316;-6.294;2022-12-29T01:01:35;8.85;;;2.38;;
41719;SDS011;27405;53.316;-6.294;2022-12-29T01:04:02;10.32;;;2.60;;
41719;SDS011;27405;53.316;-6.294;2022-12-29T01:06:29;10.63;;;2.17;;
41719;SDS011;27405;53.316;-6.294;2022-12-29T01:08:55;10.63;;;2.55;;
41719;SDS011;27405;53.316;-6.294;2022-12-29T01:11:39;6.30;;;2.15;;
41719;SDS011;27405;53.316;-6.294;2022-12-29T01:14:05;12.15;;;2.53;;
41719;SDS011;27405;53.316;-6.294;2022-12-29T01:16:32;9.68;;;2.53;;
41719;SDS011;27405;53.316;-6.294;2022-12-29T01:18:57;11.20;;;2.53;;
41719;SDS011;27405;53.316;-6.294;2022-12-29T01:21:25;7.55;;;2.72;;
41719;SDS011;27405;53.316;-6.294;2022-12-29T01:23:50;7.10;;;2.45;;
41719;SDS011;27405;53.316;-6.294;2022-12-29T01:26:17;6.63;;;2.25;;
41719;SDS011;27405;53.316;-6.294;2022-12-29T01:28:43;9.65;;;2.80;;
41719;SDS011;27405;53.316;-6.294;2022-12-29T01:31:09;12.32;;;2.70;;
41719;SDS011;27405;53.316;-6.294;2022-12-29T01:33:36;11.80;;;2.33;;
41719;SDS011;27405;53.316;-6.294;2022-12-29T01:36:03;10.02;;;2.78;;
41719;SDS011;27405;53.316;-6.294;2022-12-29T01:38:30;14.75;;;2.78;;
41719;SDS011;27405;53.316;-6.294;2022-12-29T01:40:56;9.45;;;3.03;;
41719;SDS011;27405;53.316;-6.294;2022-12-29T01:43:37;9.43;;;2.40;;
41719;SDS011;27405;53.316;-6.294;2022-12-29T01:46:04;11.50;;;2.50;;
41719;SDS011;27405;53.316;-6.294;2022-12-29T01:49:19;10.80;;;2.80;;
41719;SDS011;27405;53.316;-6.294;2022-12-29T01:51:45;8.02;;;2.53;;
41719;SDS011;27405;53.316;-6.294;2022-12-29T01:54:14;12.52;;;2.70;;
41719;SDS011;27405;53.316;-6.294;2022-12-29T01:56:47;8.60;;;2.60;;
41719;SDS011;27405;53.316;-6.294;2022-12-29T01:59:17;10.50;;;2.20;;
41719;SDS011;27405;53.316;-6.294;2022-12-29T02:01:47;7.72;;;2.15;;
41719;SDS011;27405;53.316;-6.294;2022-12-29T02:04:14;7.10;;;2.20;;
41719;SDS011;27405;53.316;-6.294;2022-12-29T02:06:49;8.95;;;2.28;;
41719;SDS011;27405;53.316;-6.294;2022-12-29T02:09:24;13.13;;;2.80;;
41719;SDS011;27405;53.316;-6.294;2022-12-29T02:11:51;10.30;;;2.58;;
41719;SDS011;27405;53.316;-6.294;2022-12-29T02:14:17;11.05;;;2.80;;
41719;SDS011;27405;53.316;-6.294;2022-12-29T02:42:24;10.95;;;2.80;;
41719;SDS011;27405;53.316;-6.294;2022-12-29T02:45:05;12.18;;;2.30;;
41719;SDS011;27405;53.316;-6.294;2022-12-29T02:47:57;11.05;;;2.40;;
41719;SDS011;27405;53.316;-6.294;2022-12-29T02:50:43;10.20;;;2.60;;
41719;SDS011;27405;53.316;-6.294;2022-12-29T02:53:17;11.93;;;2.80;;
41719;SDS011;27405;53.316;-6.294;2022-12-29T02:56:05;15.18;;;3.10;;
41719;SDS011;27405;53.316;-6.294;2022-12-29T02:58:31;11.43;;;2.78;;
41719;SDS011;27405;53.316;-6.294;2022-12-29T03:04:03;13.60;;;2.80;;
41719;SDS011;27405;53.316;-6.294;2022-12-29T03:12:30;10.20;;;3.03;;
41719;SDS011;27405;53.316;-6.294;2022-12-29T03:15:39;6.78;;;2.30;;
41719;SDS011;27405;53.316;-6.294;2022-12-29T03:18:33;6.63;;;2.60;;
41719;SDS011;27405;53.316;-6.294;2022-12-29T03:24:10;14.55;;;2.58;;
41719;SDS011;27405;53.316;-6.294;2022-12-29T03:26:37;13.82;;;2.40;;
41719;SDS011;27405;53.316;-6.294;2022-12-29T03:29:04;8.02;;;2.10;;
41719;SDS011;27405;53.316;-6.294;2022-12-29T03:31:32;6.35;;;2.10;;
41719;SDS011;27405;53.316;-6.294;2022-12-29T03:33:59;11.15;;;3.05;;
41719;SDS011;27405;53.316;-6.294;2022-12-29T03:36:38;9.65;;;2.72;;
41719;SDS011;27405;53.316;-6.294;2022-12-29T03:39:09;5.78;;;2.35;;
41719;SDS011;27405;53.316;-6.294;2022-12-29T03:41:37;10.55;;;2.70;;
41719;SDS011;27405;53.316;-6.294;2022-12-29T03:44:09;15.38;;;2.80;;
41719;SDS011;27405;53.316;-6.294;2022-12-29T03:46:36;8.32;;;2.30;;
41719;SDS011;27405;53.316;-6.294;2022-12-29T03:49:02;13.57;;;3.88;;
41719;SDS011;27405;53.316;-6.294;2022-12-29T03:51:28;7.93;;;2.00;;
41719;SDS011;27405;53.316;-6.294;2022-12-29T03:53:54;12.73;;;3.03;;
41719;SDS011;27405;53.316;-6.294;2022-12-29T03:56:19;12.32;;;2.70;;
41719;SDS011;27405;53.316;-6.294;2022-12-29T03:58:45;12.80;;;2.83;;
41719;SDS011;27405;53.316;-6.294;2022-12-29T04:01:11;16.10;;;3.10;;
41719;SDS011;27405;53.316;-6.294;2022-12-29T04:03:36;13.35;;;2.53;;
41719;SDS011;27405;53.316;-6.294;2022-12-29T04:06:03;22.00;;;3.70;;
41719;SDS011;27405;53.316;-6.294;2022-12-29T04:08:29;10.25;;;3.10;;
41719;SDS011;27405;53.316;-6.294;2022-12-29T04:10:54;9.23;;;2.30;;
41719;SDS011;27405;53.316;-6.294;2022-12-29T04:13:20;11.90;;;2.75;;
41719;SDS011;27405;53.316;-6.294;2022-12-29T04:15:46;11.45;;;2.35;;
41719;SDS011;27405;53.316;-6.294;2022-12-29T04:18:12;8.23;;;2.00;;
41719;SDS011;27405;53.316;-6.294;2022-12-29T04:20:39;11.40;;;3.00;;
41719;SDS011;27405;53.316;-6.294;2022-12-29T04:23:23;13.88;;;2.88;;
41719;SDS011;27405;53.316;-6.294;2022-12-29T04:25:48;11.15;;;2.65;;
41719;SDS011;27405;53.316;-6.294;2022-12-29T04:28:15;8.88;;;2.42;;
41719;SDS011;27405;53.316;-6.294;2022-12-29T04:30:42;14.25;;;3.67;;
41719;SDS011;27405;53.316;-6.294;2022-12-29T04:33:08;15.55;;;3.15;;
41719;SDS011;27405;53.316;-6.294;2022-12-29T04:35:34;18.50;;;3.45;;
41719;SDS011;27405;53.316;-6.294;2022-12-29T04:38:00;19.60;;;3.47;;
41719;SDS011;27405;53.316;-6.294;2022-12-29T04:40:26;22.45;;;3.40;;
41719;SDS011;27405;53.316;-6.294;2022-12-29T04:42:52;17.77;;;4.03;;
41719;SDS011;27405;53.316;-6.294;2022-12-29T04:45:17;17.90;;;3.95;;
41719;SDS011;27405;53.316;-6.294;2022-12-29T04:47:45;18.48;;;3.35;;
41719;SDS011;27405;53.316;-6.294;2022-12-29T04:50:11;13.07;;;3.25;;
41719;SDS011;27405;53.316;-6.294;2022-12-29T04:52:37;12.68;;;3.05;;
41719;SDS011;27405;53.316;-6.294;2022-12-29T04:55:03;15.85;;;3.53;;
41719;SDS011;27405;53.316;-6.294;2022-12-29T04:57:32;16.95;;;3.83;;
41719;SDS011;27405;53.316;-6.294;2022-12-29T04:59:58;14.65;;;3.30;;
41719;SDS011;27405;53.316;-6.294;2022-12-29T05:02:24;14.13;;;3.30;;
41719;SDS011;27405;53.316;-6.294;2022-12-29T05:04:50;11.65;;;2.85;;
41719;SDS011;27405;53.316;-6.294;2022-12-29T05:07:15;21.50;;;4.28;;
41719;SDS011;27405;53.316;-6.294;2022-12-29T05:09:41;17.00;;;2.97;;
41719;SDS011;27405;53.316;-6.294;2022-12-29T05:12:08;23.35;;;4.00;;
41719;SDS011;27405;53.316;-6.294;2022-12-29T05:14:33;17.13;;;3.63;;
41719;SDS011;27405;53.316;-6.294;2022-12-29T05:17:00;16.42;;;3.58;;
41719;SDS011;27405;53.316;-6.294;2022-12-29T05:19:26;12.85;;;2.70;;
41719;SDS011;27405;53.316;-6.294;2022-12-29T05:21:57;18.27;;;3.40;;
41719;SDS011;27405;53.316;-6.294;2022-12-29T05:24:23;17.17;;;3.30;;
41719;SDS011;27405;53.316;-6.294;2022-12-29T05:26:50;16.55;;;3.05;;
41719;SDS011;27405;53.316;-6.294;2022-12-29T05:29:16;15.30;;;3.85;;
41719;SDS011;27405;53.316;-6.294;2022-12-29T05:31:41;13.93;;;3.08;;
41719;SDS011;27405;53.316;-6.294;2022-12-29T05:34:08;13.73;;;2.78;;
41719;SDS011;27405;53.316;-6.294;2022-12-29T05:36:36;19.73;;;3.85;;
41719;SDS011;27405;53.316;-6.294;2022-12-29T05:39:01;15.90;;;3.70;;
41719;SDS011;27405;53.316;-6.294;2022-12-29T05:41:27;11.75;;;3.10;;
41719;SDS011;27405;53.316;-6.294;2022-12-29T05:43:54;12.65;;;2.60;;
41719;SDS011;27405;53.316;-6.294;2022-12-29T05:46:20;15.05;;;3.28;;
41719;SDS011;27405;53.316;-6.294;2022-12-29T05:48:46;12.48;;;3.13;;
41719;SDS011;27405;53.316;-6.294;2022-12-29T05:51:11;13.48;;;2.88;;
41719;SDS011;27405;53.316;-6.294;2022-12-29T05:53:37;13.55;;;3.28;;
41719;SDS011;27405;53.316;-6.294;2022-12-29T05:56:03;20.35;;;3.47;;
41719;SDS011;27405;53.316;-6.294;2022-12-29T05:58:29;16.73;;;3.72;;
41719;SDS011;27405;53.316;-6.294;2022-12-29T06:00:54;16.70;;;3.13;;
41719;SDS011;27405;53.316;-6.294;2022-12-29T06:03:20;13.35;;;3.60;;
41719;SDS011;27405;53.316;-6.294;2022-12-29T06:05:46;10.93;;;2.83;;
41719;SDS011;27405;53.316;-6.294;2022-12-29T06:08:12;16.70;;;3.10;;
41719;SDS011;27405;53.316;-6.294;2022-12-29T06:10:37;17.33;;;3.40;;
41719;SDS011;27405;53.316;-6.294;2022-12-29T06:13:03;20.60;;;3.78;;
41719;SDS011;27405;53.316;-6.294;2022-12-29T06:15:30;15.95;;;3.90;;
41719;SDS011;27405;53.316;-6.294;2022-12-29T06:17:57;18.45;;;3.75;;
41719;SDS011;27405;53.316;-6.294;2022-12-29T06:20:23;15.70;;;3.95;;
41719;SDS011;27405;53.316;-6.294;2022-12-29T06:22:49;19.25;;;3.92;;
41719;SDS011;27405;53.316;-6.294;2022-12-29T06:25:15;14.40;;;3.42;;
41719;SDS011;27405;53.316;-6.294;2022-12-29T06:27:44;17.98;;;3.50;;
41719;SDS011;27405;53.316;-6.294;2022-12-29T06:30:10;19.50;;;4.13;;
41719;SDS011;27405;53.316;-6.294;2022-12-29T06:32:36;20.58;;;3.45;;
41719;SDS011;27405;53.316;-6.294;2022-12-29T06:35:03;18.92;;;4.18;;
41719;SDS011;27405;53.316;-6.294;2022-12-29T06:37:30;20.08;;;4.53;;
41719;SDS011;27405;53.316;-6.294;2022-12-29T06:39:56;17.45;;;3.78;;
41719;SDS011;27405;53.316;-6.294;2022-12-29T06:42:22;18.33;;;4.57;;
41719;SDS011;27405;53.316;-6.294;2022-12-29T06:44:47;17.75;;;3.75;;
41719;SDS011;27405;53.316;-6.294;2022-12-29T06:47:13;21.27;;;4.57;;
41719;SDS011;27405;53.316;-6.294;2022-12-29T06:49:39;22.95;;;3.85;;
41719;SDS011;27405;53.316;-6.294;2022-12-29T06:52:04;24.65;;;4.30;;
41719;SDS011;27405;53.316;-6.294;2022-12-29T06:54:32;26.65;;;4.28;;
41719;SDS011;27405;53.316;-6.294;2022-12-29T06:56:58;21.25;;;4.28;;
41719;SDS011;27405;53.316;-6.294;2022-12-29T06:59:24;16.77;;;3.53;;
41719;SDS011;27405;53.316;-6.294;2022-12-29T07:01:51;16.30;;;4.35;;
41719;SDS011;27405;53.316;-6.294;2022-12-29T07:04:18;23.42;;;3.92;;
41719;SDS011;27405;53.316;-6.294;2022-12-29T07:06:44;18.38;;;3.55;;
41719;SDS011;27405;53.316;-6.294;2022-12-29T07:09:10;13.85;;;3.30;;
41719;SDS011;27405;53.316;-6.294;2022-12-29T07:11:37;20.98;;;3.78;;
41719;SDS011;27405;53.316;-6.294;2022-12-29T07:14:03;15.25;;;3.38;;
41719;SDS011;27405;53.316;-6.294;2022-12-29T07:16:28;21.75;;;3.95;;
41719;SDS011;27405;53.316;-6.294;2022-12-29T07:18:55;17.90;;;3.63;;
41719;SDS011;27405;53.316;-6.294;2022-12-29T07:21:22;15.35;;;3.50;;
41719;SDS011;27405;53.316;-6.294;2022-12-29T07:23:49;20.13;;;3.63;;
41719;SDS011;27405;53.316;-6.294;2022-12-29T07:26:15;17.25;;;3.95;;
41719;SDS011;27405;53.316;-6.294;2022-12-29T07:28:42;19.75;;;4.22;;
41719;SDS011;27405;53.316;-6.294;2022-12-29T07:33:48;19.38;;;3.63;;
41719;SDS011;27405;53.316;-6.294;2022-12-29T07:36:14;15.45;;;3.40;;
41719;SDS011;27405;53.316;-6.294;2022-12-29T07:38:42;17.85;;;4.13;;
41719;SDS011;27405;53.316;-6.294;2022-12-29T07:41:09;18.48;;;3.45;;
41719;SDS011;27405;53.316;-6.294;2022-12-29T07:43:35;16.55;;;3.60;;
41719;SDS011;27405;53.316;-6.294;2022-12-29T07:46:00;13.88;;;3.80;;
41719;SDS011;27405;53.316;-6.294;2022-12-29T07:48:26;14.63;;;3.30;;
41719;SDS011;27405;53.316;-6.294;2022-12-29T07:50:52;16.25;;;3.47;;
41719;SDS011;27405;53.316;-6.294;2022-12-29T07:53:18;17.52;;;3.22;;
41719;SDS011;27405;53.316;-6.294;2022-12-29T07:55:44;14.55;;;3.33;;
41719;SDS011;27405;53.316;-6.294;2022-12-29T07:58:10;16.10;;;3.33;;
41719;SDS011;27405;53.316;-6.294;2022-12-29T08:00:36;20.48;;;3.75;;
41719;SDS011;27405;53.316;-6.294;2022-12-29T08:03:03;18.00;;;3.42;;
41719;SDS011;27405;53.316;-6.294;2022-12-29T08:05:30;15.27;;;2.95;;
41719;SDS011;27405;53.316;-6.294;2022-12-29T08:07:59;14.82;;;3.05;;
41719;SDS011;27405;53.316;-6.294;2022-12-29T08:10:25;12.15;;;3.00;;
41719;SDS011;27405;53.316;-6.294;2022-12-29T08:12:51;12.82;;;3.17;;
41719;SDS011;27405;53.316;-6.294;2022-12-29T08:15:16;17.73;;;3.33;;
41719;SDS011;27405;53.316;-6.294;2022-12-29T08:17:42;16.55;;;3.00;;
41719;SDS011;27405;53.316;-6.294;2022-12-29T08:20:08;14.82;;;2.80;;
41719;SDS011;27405;53.316;-6.294;2022-12-29T08:22:34;12.75;;;3.00;;
41719;SDS011;27405;53.316;-6.294;2022-12-29T08:25:00;10.82;;;2.83;;
41719;SDS011;27405;53.316;-6.294;2022-12-29T08:27:25;20.73;;;3.58;;
41719;SDS011;27405;53.316;-6.294;2022-12-29T08:29:52;13.13;;;2.70;;
41719;SDS011;27405;53.316;-6.294;2022-12-29T08:32:17;9.90;;;2.67;;
41719;SDS011;27405;53.316;-6.294;2022-12-29T08:34:43;15.73;;;3.40;;
41719;SDS011;27405;53.316;-6.294;2022-12-29T08:37:09;15.95;;;2.72;;
41719;SDS011;27405;53.316;-6.294;2022-12-29T08:39:35;11.55;;;2.90;;
41719;SDS011;27405;53.316;-6.294;2022-12-29T08:42:00;11.95;;;3.03;;
41719;SDS011;27405;53.316;-6.294;2022-12-29T08:44:26;18.55;;;3.10;;
41719;SDS011;27405;53.316;-6.294;2022-12-29T08:46:51;21.65;;;3.47;;
41719;SDS011;27405;53.316;-6.294;2022-12-29T08:49:17;16.35;;;3.20;;
41719;SDS011;27405;53.316;-6.294;2022-12-29T08:51:43;15.88;;;3.25;;
41719;SDS011;27405;53.316;-6.294;2022-12-29T08:54:08;10.95;;;3.45;;
41719;SDS011;27405;53.316;-6.294;2022-12-29T08:56:34;18.92;;;3.45;;
41719;SDS011;27405;53.316;-6.294;2022-12-29T08:59:00;16.05;;;3.78;;
41719;SDS011;27405;53.316;-6.294;2022-12-29T09:01:26;16.63;;;2.67;;
41719;SDS011;27405;53.316;-6.294;2022-12-29T09:03:52;10.50;;;2.72;;
41719;SDS011;27405;53.316;-6.294;2022-12-29T09:06:19;8.52;;;2.63;;
41719;SDS011;27405;53.316;-6.294;2022-12-29T09:08:46;12.32;;;2.97;;
41719;SDS011;27405;53.316;-6.294;2022-12-29T09:11:17;8.93;;;2.83;;
41719;SDS011;27405;53.316;-6.294;2022-12-29T09:13:45;9.77;;;3.08;;
41719;SDS011;27405;53.316;-6.294;2022-12-29T09:16:11;13.40;;;3.63;;
41719;SDS011;27405;53.316;-6.294;2022-12-29T09:18:37;15.10;;;3.15;;
41719;SDS011;27405;53.316;-6.294;2022-12-29T09:21:04;14.10;;;2.97;;
41719;SDS011;27405;53.316;-6.294;2022-12-29T09:23:31;12.82;;;3.20;;
41719;SDS011;27405;53.316;-6.294;2022-12-29T09:25:58;11.30;;;3.33;;
41719;SDS011;27405;53.316;-6.294;2022-12-29T09:28:24;11.43;;;3.00;;
41719;SDS011;27405;53.316;-6.294;2022-12-29T09:30:50;12.60;;;2.90;;
41719;SDS011;27405;53.316;-6.294;2022-12-29T09:33:16;8.30;;;2.40;;
41719;SDS011;27405;53.316;-6.294;2022-12-29T09:35:44;13.38;;;2.90;;
41719;SDS011;27405;53.316;-6.294;2022-12-29T09:38:15;15.30;;;3.55;;
41719;SDS011;27405;53.316;-6.294;2022-12-29T09:40:43;13.07;;;3.00;;
41719;SDS011;27405;53.316;-6.294;2022-12-29T09:46:26;11.88;;;2.78;;
41719;SDS011;27405;53.316;-6.294;2022-12-29T09:49:17;11.57;;;2.60;;
41719;SDS011;27405;53.316;-6.294;2022-12-29T09:51:52;9.75;;;3.08;;
41719;SDS011;27405;53.316;-6.294;2022-12-29T09:57:03;14.07;;;3.25;;
41719;SDS011;27405;53.316;-6.294;2022-12-29T09:59:38;7.72;;;2.25;;
41719;SDS011;27405;53.316;-6.294;2022-12-29T10:02:20;11.38;;;3.05;;
41719;SDS011;27405;53.316;-6.294;2022-12-29T10:08:07;14.65;;;3.17;;
41719;SDS011;27405;53.316;-6.294;2022-12-29T10:10:55;10.13;;;2.85;;
41719;SDS011;27405;53.316;-6.294;2022-12-29T10:13:28;13.45;;;3.47;;
41719;SDS011;27405;53.316;-6.294;2022-12-29T10:16:03;10.50;;;3.03;;
41719;SDS011;27405;53.316;-6.294;2022-12-29T10:18:56;16.58;;;3.22;;
41719;SDS011;27405;53.316;-6.294;2022-12-29T10:21:49;15.65;;;4.13;;
41719;SDS011;27405;53.316;-6.294;2022-12-29T10:24:38;13.70;;;3.60;;
41719;SDS011;27405;53.316;-6.294;2022-12-29T10:27:05;11.10;;;3.38;;
41719;SDS011;27405;53.316;-6.294;2022-12-29T10:29:37;14.50;;;3.05;;
41719;SDS011;27405;53.316;-6.294;2022-12-29T10:32:26;15.07;;;3.85;;
41719;SDS011;27405;53.316;-6.294;2022-12-29T10:45:16;14.98;;;3.15;;
41719;SDS011;27405;53.316;-6.294;2022-12-29T10:48:03;12.25;;;2.85;;
41719;SDS011;27405;53.316;-6.294;2022-12-29T10:50:37;14.88;;;3.45;;
41719;SDS011;27405;53.316;-6.294;2022-12-29T10:53:07;14.88;;;3.10;;
41719;SDS011;27405;53.316;-6.294;2022-12-29T10:55:43;15.98;;;3.30;;
41719;SDS011;27405;53.316;-6.294;2022-12-29T10:58:11;15.63;;;3.72;;
41719;SDS011;27405;53.316;-6.294;2022-12-29T11:00:39;15.68;;;3.05;;
41719;SDS011;27405;53.316;-6.294;2022-12-29T11:08:24;16.90;;;3.10;;
41719;SDS011;27405;53.316;-6.294;2022-12-29T11:11:05;19.25;;;4.32;;
41719;SDS011;27405;53.316;-6.294;2022-12-29T11:13:34;20.63;;;4.10;;
41719;SDS011;27405;53.316;-6.294;2022-12-29T11:16:12;16.00;;;3.40;;
41719;SDS011;27405;53.316;-6.294;2022-12-29T11:18:38;12.82;;;3.42;;
41719;SDS011;27405;53.316;-6.294;2022-12-29T11:24:00;8.95;;;2.70;;
41719;SDS011;27405;53.316;-6.294;2022-12-29T11:26:28;10.20;;;2.58;;
41719;SDS011;27405;53.316;-6.294;2022-12-29T11:31:43;13.38;;;3.20;;
41719;SDS011;27405;53.316;-6.294;2022-12-29T11:34:16;6.88;;;2.33;;
41719;SDS011;27405;53.316;-6.294;2022-12-29T11:37:39;9.35;;;3.00;;
41719;SDS011;27405;53.316;-6.294;2022-12-29T11:40:05;9.65;;;2.45;;
41719;SDS011;27405;53.316;-6.294;2022-12-29T11:42:41;10.82;;;2.60;;
41719;SDS011;27405;53.316;-6.294;2022-12-29T11:45:25;4.97;;;2.22;;
41719;SDS011;27405;53.316;-6.294;2022-12-29T11:47:58;8.18;;;2.50;;
41719;SDS011;27405;53.316;-6.294;2022-12-29T11:50:34;6.35;;;2.45;;
41719;SDS011;27405;53.316;-6.294;2022-12-29T11:53:13;4.68;;;1.98;;
41719;SDS011;27405;53.316;-6.294;2022-12-29T11:55:53;7.40;;;2.35;;
41719;SDS011;27405;53.316;-6.294;2022-12-29T11:58:33;5.45;;;2.13;;
41719;SDS011;27405;53.316;-6.294;2022-12-29T12:01:11;4.15;;;1.98;;
41719;SDS011;27405;53.316;-6.294;2022-12-29T12:04:14;6.47;;;2.25;;
41719;SDS011;27405;53.316;-6.294;2022-12-29T12:06:47;12.18;;;2.85;;
41719;SDS011;27405;53.316;-6.294;2022-12-29T12:09:29;5.70;;;2.17;;
41719;SDS011;27405;53.316;-6.294;2022-12-29T12:11:59;10.40;;;2.60;;
41719;SDS011;27405;53.316;-6.294;2022-12-29T12:14:35;8.68;;;3.10;;
41719;SDS011;27405;53.316;-6.294;2022-12-29T12:17:05;8.32;;;3.10;;
41719;SDS011;27405;53.316;-6.294;2022-12-29T12:25:21;12.23;;;3.72;;
41719;SDS011;27405;53.316;-6.294;2022-12-29T12:30:42;12.82;;;3.50;;
41719;SDS011;27405;53.316;-6.294;2022-12-29T12:33:17;7.03;;;2.83;;
41719;SDS011;27405;53.316;-6.294;2022-12-29T12:57:46;12.60;;;3.75;;
41719;SDS011;27405;53.316;-6.294;2022-12-29T13:00:30;11.02;;;3.20;;
41719;SDS011;27405;53.316;-6.294;2022-12-29T13:06:15;10.80;;;3.40;;
41719;SDS011;27405;53.316;-6.294;2022-12-29T13:08:43;16.13;;;3.97;;
41719;SDS011;27405;53.316;-6.294;2022-12-29T13:12:00;15.90;;;3.50;;
41719;SDS011;27405;53.316;-6.294;2022-12-29T13:29:12;11.32;;;3.33;;
41719;SDS011;27405;53.316;-6.294;2022-12-29T13:31:52;9.07;;;2.92;;
41719;SDS011;27405;53.316;-6.294;2022-12-29T13:37:09;4.95;;;2.55;;
41719;SDS011;27405;53.316;-6.294;2022-12-29T13:39:40;8.50;;;2.92;;
41719;SDS011;27405;53.316;-6.294;2022-12-29T13:42:10;7.18;;;2.88;;
41719;SDS011;27405;53.316;-6.294;2022-12-29T13:48:06;7.43;;;2.80;;
41719;SDS011;27405;53.316;-6.294;2022-12-29T13:50:35;5.88;;;2.30;;
41719;SDS011;27405;53.316;-6.294;2022-12-29T13:53:13;6.22;;;2.33;;
41719;SDS011;27405;53.316;-6.294;2022-12-29T13:55:58;5.85;;;2.83;;
41719;SDS011;27405;53.316;-6.294;2022-12-29T14:01:38;4.35;;;2.20;;
41719;SDS011;27405;53.316;-6.294;2022-12-29T14:04:14;7.07;;;2.65;;
41719;SDS011;27405;53.316;-6.294;2022-12-29T14:06:47;3.30;;;2.28;;
41719;SDS011;27405;53.316;-6.294;2022-12-29T14:09:36;5.97;;;2.55;;
41719;SDS011;27405;53.316;-6.294;2022-12-29T14:15:04;4.53;;;2.70;;
41719;SDS011;27405;53.316;-6.294;2022-12-29T14:17:33;5.22;;;2.75;;
41719;SDS011;27405;53.316;-6.294;2022-12-29T14:20:00;4.75;;;2.40;;
41719;SDS011;27405;53.316;-6.294;2022-12-29T14:22:27;6.13;;;2.75;;
41719;SDS011;27405;53.316;-6.294;2022-12-29T14:24:53;7.97;;;2.50;;
41719;SDS011;27405;53.316;-6.294;2022-12-29T14:29:46;5.40;;;2.45;;
41719;SDS011;27405;53.316;-6.294;2022-12-29T14:37:29;8.88;;;3.20;;
41719;SDS011;27405;53.316;-6.294;2022-12-29T14:42:48;10.90;;;4.00;;
41719;SDS011;27405;53.316;-6.294;2022-12-29T14:47:51;7.15;;;2.80;;
41719;SDS011;27405;53.316;-6.294;2022-12-29T14:50:25;7.13;;;2.97;;
41719;SDS011;27405;53.316;-6.294;2022-12-29T14:52:59;9.95;;;3.30;;
41719;SDS011;27405;53.316;-6.294;2022-12-29T14:58:02;7.47;;;4.13;;
41719;SDS011;27405;53.316;-6.294;2022-12-29T15:00:34;13.55;;;5.10;;
41719;SDS011;27405;53.316;-6.294;2022-12-29T15:05:47;13.10;;;4.40;;
41719;SDS011;27405;53.316;-6.294;2022-12-29T15:08:17;11.93;;;4.15;;
41719;SDS011;27405;53.316;-6.294;2022-12-29T15:10:52;14.55;;;4.07;;
41719;SDS011;27405;53.316;-6.294;2022-12-29T15:13:23;8.45;;;3.50;;
41719;SDS011;27405;53.316;-6.294;2022-12-29T15:15:57;8.07;;;3.22;;
41719;SDS011;27405;53.316;-6.294;2022-12-29T15:20:54;11.30;;;6.55;;
41719;SDS011;27405;53.316;-6.294;2022-12-29T15:23:22;12.35;;;4.50;;
41719;SDS011;27405;53.316;-6.294;2022-12-29T15:25:50;14.52;;;6.43;;
41719;SDS011;27405;53.316;-6.294;2022-12-29T15:28:23;8.35;;;4.00;;
41719;SDS011;27405;53.316;-6.294;2022-12-29T15:30:50;7.20;;;3.60;;
41719;SDS011;27405;53.316;-6.294;2022-12-29T15:33:22;39.00;;;21.00;;
41719;SDS011;27405;53.316;-6.294;2022-12-29T15:35:51;25.88;;;12.18;;
41719;SDS011;27405;53.316;-6.294;2022-12-29T15:38:21;22.70;;;8.93;;
41719;SDS011;27405;53.316;-6.294;2022-12-29T15:40:53;15.52;;;6.00;;
41719;SDS011;27405;53.316;-6.294;2022-12-29T15:46:19;16.20;;;5.80;;
41719;SDS011;27405;53.316;-6.294;2022-12-29T15:48:45;18.05;;;4.82;;
41719;SDS011;27405;53.316;-6.294;2022-12-29T15:53:51;12.70;;;4.18;;
41719;SDS011;27405;53.316;-6.294;2022-12-29T15:56:17;13.52;;;3.60;;
41719;SDS011;27405;53.316;-6.294;2022-12-29T15:58:44;11.85;;;4.22;;
41719;SDS011;27405;53.316;-6.294;2022-12-29T16:01:22;13.20;;;5.55;;
41719;SDS011;27405;53.316;-6.294;2022-12-29T16:03:52;7.82;;;3.60;;
41719;SDS011;27405;53.316;-6.294;2022-12-29T16:09:01;9.93;;;4.00;;
41719;SDS011;27405;53.316;-6.294;2022-12-29T16:11:38;8.93;;;3.22;;
41719;SDS011;27405;53.316;-6.294;2022-12-29T16:14:16;11.85;;;4.72;;
41719;SDS011;27405;53.316;-6.294;2022-12-29T16:16:45;13.35;;;5.55;;
41719;SDS011;27405;53.316;-6.294;2022-12-29T16:22:03;17.63;;;4.40;;
41719;SDS011;27405;53.316;-6.294;2022-12-29T16:24:36;15.07;;;4.78;;
41719;SDS011;27405;53.316;-6.294;2022-12-29T16:27:08;12.18;;;4.50;;
41719;SDS011;27405;53.316;-6.294;2022-12-29T16:29:43;15.05;;;5.38;;
41719;SDS011;27405;53.316;-6.294;2022-12-29T16:35:17;13.52;;;4.47;;
41719;SDS011;27405;53.316;-6.294;2022-12-29T16:37:43;11.60;;;4.43;;
41719;SDS011;27405;53.316;-6.294;2022-12-29T16:40:20;12.43;;;4.80;;
41719;SDS011;27405;53.316;-6.294;2022-12-29T16:42:56;11.95;;;4.78;;
41719;SDS011;27405;53.316;-6.294;2022-12-29T16:50:39;11.48;;;5.53;;
41719;SDS011;27405;53.316;-6.294;2022-12-29T16:53:15;13.50;;;5.20;;
41719;SDS011;27405;53.316;-6.294;2022-12-29T16:55:52;17.77;;;5.95;;
41719;SDS011;27405;53.316;-6.294;2022-12-29T16:58:25;9.80;;;4.55;;
41719;SDS011;27405;53.316;-6.294;2022-12-29T17:00:56;10.13;;;4.95;;
41719;SDS011;27405;53.316;-6.294;2022-12-29T17:03:27;12.35;;;5.38;;
41719;SDS011;27405;53.316;-6.294;2022-12-29T17:06:05;14.95;;;5.60;;
41719;SDS011;27405;53.316;-6.294;2022-12-29T17:08:42;12.82;;;5.85;;
41719;SDS011;27405;53.316;-6.294;2022-12-29T17:11:18;13.60;;;5.88;;
41719;SDS011;27405;53.316;-6.294;2022-12-29T17:16:44;10.80;;;4.72;;
41719;SDS011;27405;53.316;-6.294;2022-12-29T17:19:15;13.93;;;5.00;;
41719;SDS011;27405;53.316;-6.294;2022-12-29T17:21:45;11.07;;;5.35;;
41719;SDS011;27405;53.316;-6.294;2022-12-29T17:26:50;14.23;;;6.78;;
41719;SDS011;27405;53.316;-6.294;2022-12-29T17:29:27;11.65;;;5.53;;
41719;SDS011;27405;53.316;-6.294;2022-12-29T17:31:54;14.15;;;5.22;;
41719;SDS011;27405;53.316;-6.294;2022-12-29T17:34:20;11.75;;;4.88;;
41719;SDS011;27405;53.316;-6.294;2022-12-29T17:36:47;14.70;;;4.55;;
41719;SDS011;27405;53.316;-6.294;2022-12-29T17:39:14;11.02;;;4.38;;
41719;SDS011;27405;53.316;-6.294;2022-12-29T17:41:39;14.68;;;5.32;;
41719;SDS011;27405;53.316;-6.294;2022-12-29T17:44:08;11.23;;;4.50;;
41719;SDS011;27405;53.316;-6.294;2022-12-29T17:46:41;7.97;;;4.15;;